createdAt,value
2019-02-17T00:01:47.782Z,81.80
2019-02-17T00:04:16.253Z,81.20
2019-02-17T00:06:51.759Z,81.70
2019-02-17T00:09:20.214Z,82.00
2019-02-17T00:11:48.656Z,82.00
2019-02-17T00:14:17.106Z,81.30
2019-02-17T00:16:45.550Z,81.00
2019-02-17T00:19:13.995Z,81.50
2019-02-17T00:21:42.425Z,81.30
2019-02-17T00:24:10.869Z,81.70
2019-02-17T00:26:39.297Z,82.90
2019-02-17T00:29:07.754Z,84.30
2019-02-17T00:31:36.194Z,83.80
2019-02-17T00:34:04.654Z,84.70
2019-02-17T00:36:33.098Z,84.70
2019-02-17T00:39:01.581Z,85.60
2019-02-17T00:41:30.029Z,85.50
2019-02-17T00:43:58.506Z,85.50
2019-02-17T00:46:26.969Z,85.60
2019-02-17T00:48:55.426Z,84.70
2019-02-17T00:51:23.993Z,84.10
2019-02-17T00:53:52.523Z,83.70
2019-02-17T00:56:20.970Z,84.20
2019-02-17T00:58:49.401Z,83.90
2019-02-17T01:01:17.852Z,84.20
2019-02-17T01:03:46.290Z,84.20
2019-02-17T01:06:14.762Z,84.40
2019-02-17T01:08:43.198Z,84.10
2019-02-17T01:11:11.646Z,84.30
2019-02-17T01:13:40.106Z,84.50
2019-02-17T01:16:08.569Z,84.40
2019-02-17T01:18:36.999Z,84.90
2019-02-17T01:21:05.446Z,85.00
2019-02-17T01:23:33.882Z,85.50
2019-02-17T01:26:11.311Z,85.20
2019-02-17T01:28:39.758Z,85.00
2019-02-17T01:31:08.596Z,85.40
2019-02-17T01:33:37.242Z,85.30
2019-02-17T01:36:05.688Z,85.10
2019-02-17T01:38:34.130Z,85.30
2019-02-17T01:41:02.578Z,85.30
2019-02-17T01:43:32.897Z,84.80
2019-02-17T01:46:01.350Z,84.70
2019-02-17T01:48:29.854Z,85.30
2019-02-17T01:50:58.299Z,84.40
2019-02-17T01:53:26.750Z,84.90
2019-02-17T01:55:55.194Z,84.90
2019-02-17T01:58:23.874Z,85.30
2019-02-17T02:00:52.322Z,85.50
2019-02-17T02:03:20.755Z,85.60
2019-02-17T02:05:51.978Z,85.60
2019-02-17T02:08:20.405Z,86.20
2019-02-17T02:10:48.864Z,86.30
2019-02-17T02:13:17.296Z,86.20
2019-02-17T02:15:45.747Z,85.80
2019-02-17T02:18:14.192Z,86.30
2019-02-17T02:20:42.644Z,86.00
2019-02-17T02:23:11.146Z,85.80
2019-02-17T02:25:39.581Z,85.40
2019-02-17T02:28:08.008Z,85.80
2019-02-17T02:30:36.459Z,85.50
2019-02-17T02:33:04.894Z,85.30
2019-02-17T02:35:33.342Z,85.50
2019-02-17T02:38:01.785Z,84.80
2019-02-17T02:40:30.229Z,85.00
2019-02-17T02:42:58.667Z,85.50
2019-02-17T02:45:27.116Z,85.80
2019-02-17T02:47:55.557Z,85.30
2019-02-17T02:50:24.006Z,84.40
2019-02-17T02:52:52.442Z,85.40
2019-02-17T02:55:20.898Z,86.00
2019-02-17T02:57:49.348Z,86.20
2019-02-17T03:00:17.792Z,86.90
2019-02-17T03:03:05.567Z,86.70
2019-02-17T03:05:35.735Z,86.30
2019-02-17T03:08:04.175Z,85.70
2019-02-17T03:10:32.626Z,84.40
2019-02-17T03:13:01.065Z,86.70
2019-02-17T03:15:29.511Z,86.90
2019-02-17T03:17:57.937Z,86.70
2019-02-17T03:20:26.380Z,88.20
2019-02-17T03:22:54.826Z,88.00
2019-02-17T03:25:23.285Z,88.10
2019-02-17T03:28:12.606Z,87.90
2019-02-17T03:30:42.174Z,87.90
2019-02-17T03:33:10.608Z,87.80
2019-02-17T03:35:39.128Z,88.50
2019-02-17T03:38:07.580Z,88.20
2019-02-17T03:40:36.081Z,88.60
2019-02-17T03:43:04.522Z,88.50
2019-02-17T03:45:32.973Z,88.60
2019-02-17T03:48:01.410Z,87.90
2019-02-17T03:50:29.858Z,88.00
2019-02-17T03:53:17.642Z,88.30
2019-02-17T03:55:46.110Z,88.50
2019-02-17T03:58:14.598Z,88.90
2019-02-17T04:00:43.123Z,88.90
2019-02-17T04:03:11.577Z,88.70
2019-02-17T04:05:40.014Z,88.70
2019-02-17T04:08:08.440Z,88.70
2019-02-17T04:10:36.899Z,88.90
2019-02-17T04:13:05.328Z,89.10
2019-02-17T04:15:33.771Z,88.80
2019-02-17T04:18:02.209Z,89.30
2019-02-17T04:20:30.693Z,89.30
2019-02-17T04:22:59.141Z,89.10
2019-02-17T04:25:27.591Z,89.30
2019-02-17T04:28:15.464Z,89.40
2019-02-17T04:31:03.307Z,89.80
2019-02-17T04:33:31.746Z,88.70
2019-02-17T04:36:00.523Z,88.40
2019-02-17T04:38:28.949Z,88.70
2019-02-17T04:40:57.402Z,89.20
2019-02-17T04:43:25.832Z,89.30
2019-02-17T04:45:54.286Z,89.80
2019-02-17T04:48:22.759Z,89.40
2019-02-17T04:50:51.274Z,88.90
2019-02-17T04:53:19.711Z,89.30
2019-02-17T04:55:48.228Z,89.30
2019-02-17T04:58:16.674Z,89.10
2019-02-17T05:00:45.111Z,89.20
2019-02-17T05:03:13.545Z,88.80
2019-02-17T05:05:41.983Z,89.50
2019-02-17T05:08:10.427Z,89.00
2019-02-17T05:10:38.939Z,89.70
2019-02-17T05:13:07.457Z,89.20
2019-02-17T05:15:35.903Z,89.00
2019-02-17T05:18:05.202Z,89.50
2019-02-17T05:20:33.639Z,89.50
2019-02-17T05:23:02.089Z,88.90
2019-02-17T05:25:30.539Z,89.20
2019-02-17T05:27:58.987Z,89.90
2019-02-17T05:30:27.428Z,89.80
2019-02-17T05:32:55.865Z,89.00
2019-02-17T05:35:24.310Z,89.60
2019-02-17T05:37:52.751Z,89.80
2019-02-17T05:40:21.190Z,90.30
2019-02-17T05:42:49.637Z,89.50
2019-02-17T05:45:37.409Z,88.50
2019-02-17T05:48:05.860Z,87.60
2019-02-17T05:50:34.364Z,90.00
2019-02-17T05:53:02.815Z,90.20
2019-02-17T05:55:31.251Z,90.30
2019-02-17T05:57:59.718Z,90.70
2019-02-17T06:00:29.026Z,90.50
2019-02-17T06:02:57.477Z,90.40
2019-02-17T06:05:25.915Z,89.70
2019-02-17T06:07:54.362Z,90.20
2019-02-17T06:10:22.805Z,90.40
2019-02-17T06:12:51.242Z,89.20
2019-02-17T06:15:19.678Z,90.10
2019-02-17T06:17:48.117Z,90.10
2019-02-17T06:20:16.550Z,90.50
2019-02-17T06:22:44.995Z,90.90
2019-02-17T06:25:13.435Z,90.30
2019-02-17T06:27:41.951Z,90.10
2019-02-17T06:30:10.522Z,89.70
2019-02-17T06:32:58.374Z,88.90
2019-02-17T06:35:26.810Z,88.90
2019-02-17T06:37:55.259Z,89.30
2019-02-17T06:40:23.702Z,89.50
2019-02-17T06:42:52.148Z,88.90
2019-02-17T06:45:20.586Z,88.70
2019-02-17T06:47:49.029Z,89.30
2019-02-17T06:50:17.755Z,88.50
2019-02-17T06:52:46.197Z,88.70
2019-02-17T06:55:28.221Z,89.80
2019-02-17T06:57:56.833Z,88.80
2019-02-17T07:03:23.213Z,88.10
2019-02-17T07:05:59.273Z,87.90
2019-02-17T07:08:27.750Z,88.20
2019-02-17T07:10:56.249Z,88.80
2019-02-17T07:13:44.025Z,88.90
2019-02-17T07:16:12.550Z,88.90
2019-02-17T07:18:41.010Z,89.60
2019-02-17T07:21:09.580Z,89.10
2019-02-17T07:23:38.026Z,89.20
2019-02-17T07:26:06.468Z,89.10
2019-02-17T07:28:34.925Z,88.50
2019-02-17T07:31:03.353Z,88.00
2019-02-17T07:33:31.805Z,87.50
2019-02-17T07:36:10.211Z,88.20
2019-02-17T07:38:38.650Z,87.70
2019-02-17T07:41:07.100Z,87.20
2019-02-17T07:43:35.552Z,87.20
2019-02-17T07:46:03.976Z,86.90
2019-02-17T07:48:32.434Z,86.30
2019-02-17T07:51:00.883Z,86.30
2019-02-17T07:53:29.330Z,90.20
2019-02-17T07:55:57.783Z,88.90
2019-02-17T07:58:26.231Z,87.80
2019-02-17T08:00:54.683Z,86.00
2019-02-17T08:03:23.125Z,85.70
2019-02-17T08:05:51.566Z,83.50
2019-02-17T08:08:20.005Z,83.60
2019-02-17T08:10:48.462Z,82.30
2019-02-17T08:13:16.914Z,80.10
2019-02-17T08:15:45.369Z,77.50
2019-02-17T08:18:13.825Z,72.90
2019-02-17T08:20:42.263Z,68.50
2019-02-17T08:23:10.714Z,64.50
2019-02-17T08:25:39.159Z,60.60
2019-02-17T08:28:07.662Z,58.40
2019-02-17T08:30:36.122Z,57.60
2019-02-17T08:33:04.572Z,57.40
2019-02-17T08:35:33.022Z,58.20
2019-02-17T08:38:03.411Z,59.20
2019-02-17T08:40:31.644Z,61.60
2019-02-17T08:43:00.094Z,62.70
2019-02-17T08:45:28.566Z,63.20
2019-02-17T08:47:57.019Z,64.10
2019-02-17T08:50:25.463Z,65.70
2019-02-17T08:52:53.907Z,69.20
2019-02-17T08:55:22.333Z,67.20
2019-02-17T08:57:50.786Z,67.50
2019-02-17T09:00:19.238Z,68.40
2019-02-17T09:02:47.680Z,68.50
2019-02-17T09:05:16.129Z,68.10
2019-02-17T09:07:44.566Z,68.00
2019-02-17T09:10:13.213Z,67.40
2019-02-17T09:12:41.708Z,66.30
2019-02-17T09:15:12.192Z,66.10
2019-02-17T09:17:40.643Z,67.40
2019-02-17T09:20:11.046Z,66.40
2019-02-17T09:22:39.562Z,64.50
2019-02-17T09:25:10.446Z,65.40
2019-02-17T09:27:38.893Z,63.50
2019-02-17T09:30:13.162Z,62.70
2019-02-17T09:32:41.618Z,61.50
2019-02-17T09:35:10.066Z,60.80
2019-02-17T09:37:38.505Z,59.50
2019-02-17T09:40:09.697Z,59.60
2019-02-17T09:42:38.133Z,58.60
2019-02-17T09:45:09.605Z,57.60
2019-02-17T09:47:38.037Z,56.90
2019-02-17T09:50:09.920Z,56.70
2019-02-17T09:52:38.425Z,57.00
2019-02-17T09:55:08.220Z,56.00
2019-02-17T09:57:36.659Z,55.70
2019-02-17T10:00:07.666Z,55.30
2019-02-17T10:02:36.092Z,54.50
2019-02-17T10:05:23.886Z,53.20
2019-02-17T10:07:52.330Z,52.80
2019-02-17T10:10:21.154Z,52.30
2019-02-17T10:12:49.594Z,51.40
2019-02-17T10:15:18.050Z,51.80
2019-02-17T10:17:46.492Z,50.90
